RYR45JL LEBL-EBBR
Flight info
| Callsign | RYR45JL |
|---|---|
| Flight time | N/A |
| Altitude | 32000 |
| Route | OLOXO DCT OKABI DCT TOU DCT ADABI DCT BOKNO UN858 VANAD UN874 BAMES UT191 PODEM UN873 BAZOS DCT BELDI DCT VEKIN Z173 ARVOL |
| Aircraft | B38M/M-SDE1FGHILORVWXY/HB1 |
Departure
| Time | N/A |
|---|---|
| Airport | Josep Tarradellas Barcelona-El Prat Airport (LEBL) |
Arrival
| Time | 2026-05-03 21:25 |
|---|---|
| Airport | Brussels Airport (EBBR) |
| Time | Latitude | Longitude | Altitude | Speed | Heading |
|---|---|---|---|---|---|
| 2026-05-03 20:15 | 43.63325 | 1.33332 | 31968 ft | 484 kts | 348° |
| 2026-05-03 20:15 | 43.70006 | 1.32148 | 31967 ft | 484 kts | 348° |
| 2026-05-03 20:16 | 43.76678 | 1.30963 | 31967 ft | 484 kts | 348° |
| 2026-05-03 20:16 | 43.83347 | 1.29776 | 31969 ft | 484 kts | 348° |
| 2026-05-03 20:17 | 43.90016 | 1.28586 | 31965 ft | 484 kts | 347° |
| 2026-05-03 20:17 | 43.96749 | 1.27383 | 31970 ft | 485 kts | 347° |
| 2026-05-03 20:18 | 44.03406 | 1.26190 | 31972 ft | 485 kts | 347° |
| 2026-05-03 20:18 | 44.10125 | 1.24983 | 31976 ft | 486 kts | 347° |
| 2026-05-03 20:19 | 44.16829 | 1.23777 | 31979 ft | 486 kts | 347° |
| 2026-05-03 20:19 | 44.23530 | 1.22568 | 31979 ft | 486 kts | 347° |
| 2026-05-03 20:20 | 44.30246 | 1.21354 | 31988 ft | 487 kts | 347° |
| 2026-05-03 20:20 | 44.36973 | 1.20134 | 31990 ft | 487 kts | 348° |
| 2026-05-03 20:21 | 44.43702 | 1.18912 | 31990 ft | 487 kts | 348° |
| 2026-05-03 20:21 | 44.50419 | 1.17689 | 31997 ft | 487 kts | 348° |
| 2026-05-03 20:22 | 44.57147 | 1.16461 | 31996 ft | 487 kts | 348° |
| 2026-05-03 20:22 | 44.63846 | 1.15235 | 32006 ft | 488 kts | 348° |
| 2026-05-03 20:23 | 44.70604 | 1.13996 | 32001 ft | 488 kts | 348° |
| 2026-05-03 20:23 | 44.77342 | 1.12757 | 32008 ft | 488 kts | 348° |
| 2026-05-03 20:24 | 44.84045 | 1.11522 | 32009 ft | 489 kts | 348° |
| 2026-05-03 20:24 | 44.90786 | 1.10278 | 32011 ft | 489 kts | 348° |
| 2026-05-03 20:25 | 44.97540 | 1.09028 | 32009 ft | 489 kts | 348° |
| 2026-05-03 20:25 | 45.04287 | 1.07776 | 32001 ft | 489 kts | 348° |
| 2026-05-03 20:26 | 45.11069 | 1.06514 | 32000 ft | 489 kts | 348° |
| 2026-05-03 20:26 | 45.17788 | 1.05262 | 31994 ft | 490 kts | 348° |
| 2026-05-03 20:27 | 45.24554 | 1.03997 | 31998 ft | 490 kts | 348° |
| 2026-05-03 20:27 | 45.31323 | 1.02729 | 31995 ft | 490 kts | 348° |
| 2026-05-03 20:28 | 45.38072 | 1.01462 | 31998 ft | 491 kts | 348° |
| 2026-05-03 20:28 | 45.44878 | 1.00181 | 31997 ft | 491 kts | 348° |
| 2026-05-03 20:29 | 45.51655 | 0.98902 | 31993 ft | 492 kts | 348° |
| 2026-05-03 20:29 | 45.58442 | 0.97618 | 32001 ft | 493 kts | 348° |
| 2026-05-03 20:30 | 45.65250 | 0.96327 | 32005 ft | 495 kts | 348° |
| 2026-05-03 20:30 | 45.72079 | 0.95029 | 32004 ft | 495 kts | 348° |
| 2026-05-03 20:31 | 45.78910 | 0.93727 | 32009 ft | 497 kts | 348° |
| 2026-05-03 20:31 | 45.85763 | 0.92420 | 32011 ft | 498 kts | 348° |
| 2026-05-03 20:31 | 45.89278 | 0.92219 | 31994 ft | 504 kts | 2° |
| 2026-05-03 20:32 | 45.92717 | 0.93082 | 32016 ft | 508 kts | 7° |
| 2026-05-03 20:32 | 45.99742 | 0.94439 | 32017 ft | 509 kts | 4° |
| 2026-05-03 20:33 | 46.06783 | 0.95663 | 31996 ft | 510 kts | 3° |
| 2026-05-03 20:33 | 46.13820 | 0.96877 | 31987 ft | 511 kts | 3° |
| 2026-05-03 20:34 | 46.20874 | 0.98097 | 31978 ft | 511 kts | 3° |
| 2026-05-03 20:34 | 46.27921 | 0.99319 | 31977 ft | 512 kts | 3° |
| 2026-05-03 20:35 | 46.35012 | 1.00552 | 31971 ft | 513 kts | 3° |
| 2026-05-03 20:35 | 46.42097 | 1.01787 | 31965 ft | 513 kts | 3° |
| 2026-05-03 20:36 | 46.49186 | 1.03026 | 31969 ft | 513 kts | 3° |
| 2026-05-03 20:36 | 46.56276 | 1.04268 | 31965 ft | 513 kts | 3° |
| 2026-05-03 20:37 | 46.63358 | 1.05512 | 31964 ft | 513 kts | 2° |
| 2026-05-03 20:37 | 46.70444 | 1.06760 | 31964 ft | 513 kts | 2° |
| 2026-05-03 20:38 | 46.77522 | 1.08011 | 31962 ft | 514 kts | 2° |
| 2026-05-03 20:38 | 46.83443 | 1.09059 | 31958 ft | 514 kts | 2° |
| 2026-05-03 20:39 | 46.91712 | 1.10527 | 31961 ft | 514 kts | 2° |
| 2026-05-03 20:39 | 46.98809 | 1.11790 | 31958 ft | 514 kts | 2° |
| 2026-05-03 20:40 | 47.05900 | 1.13057 | 31957 ft | 514 kts | 2° |
| 2026-05-03 20:40 | 47.12989 | 1.14325 | 31956 ft | 514 kts | 2° |
| 2026-05-03 20:41 | 47.18917 | 1.15389 | 31956 ft | 514 kts | 2° |
| 2026-05-03 20:41 | 47.26018 | 1.16666 | 31952 ft | 514 kts | 2° |
| 2026-05-03 20:42 | 47.33128 | 1.17949 | 31954 ft | 514 kts | 2° |
| 2026-05-03 20:42 | 47.40191 | 1.19226 | 31951 ft | 515 kts | 2° |
| 2026-05-03 20:43 | 47.47300 | 1.20515 | 31950 ft | 515 kts | 2° |
| 2026-05-03 20:43 | 47.54410 | 1.21808 | 31944 ft | 515 kts | 2° |
| 2026-05-03 20:44 | 47.61541 | 1.23109 | 31941 ft | 515 kts | 2° |
| 2026-05-03 20:44 | 47.68664 | 1.24411 | 31943 ft | 516 kts | 2° |
| 2026-05-03 20:45 | 47.75754 | 1.25711 | 31944 ft | 516 kts | 2° |
| 2026-05-03 20:45 | 47.82876 | 1.27020 | 31944 ft | 517 kts | 2° |
| 2026-05-03 20:46 | 47.90039 | 1.28340 | 31944 ft | 517 kts | 2° |
| 2026-05-03 20:46 | 47.97196 | 1.29664 | 31948 ft | 518 kts | 2° |
| 2026-05-03 20:47 | 48.04338 | 1.30988 | 31946 ft | 518 kts | 2° |
| 2026-05-03 20:47 | 48.11440 | 1.32308 | 31945 ft | 518 kts | 2° |
| 2026-05-03 20:48 | 48.18585 | 1.33640 | 31945 ft | 518 kts | 3° |
| 2026-05-03 20:48 | 48.25730 | 1.34976 | 31942 ft | 518 kts | 3° |
| 2026-05-03 20:49 | 48.32890 | 1.36319 | 31945 ft | 518 kts | 3° |
| 2026-05-03 20:49 | 48.40062 | 1.37667 | 31943 ft | 519 kts | 3° |
| 2026-05-03 20:50 | 48.46088 | 1.38803 | 31938 ft | 519 kts | 3° |
| 2026-05-03 20:50 | 48.52105 | 1.39939 | 31947 ft | 519 kts | 3° |
| 2026-05-03 20:51 | 48.59297 | 1.41302 | 31943 ft | 519 kts | 3° |
| 2026-05-03 20:51 | 48.66439 | 1.42659 | 31941 ft | 519 kts | 3° |
| 2026-05-03 20:52 | 48.73590 | 1.44021 | 31957 ft | 519 kts | 3° |
| 2026-05-03 20:52 | 48.80770 | 1.45393 | 31947 ft | 519 kts | 3° |
| 2026-05-03 20:53 | 48.87926 | 1.46765 | 31955 ft | 519 kts | 3° |
| 2026-05-03 20:53 | 48.95103 | 1.48144 | 31959 ft | 519 kts | 3° |
| 2026-05-03 20:54 | 49.02256 | 1.49767 | 31959 ft | 519 kts | 5° |
| 2026-05-03 20:54 | 49.12954 | 1.52236 | 31953 ft | 519 kts | 5° |
| 2026-05-03 20:55 | 49.20090 | 1.53885 | 31948 ft | 519 kts | 5° |
| 2026-05-03 20:55 | 49.26937 | 1.57324 | 31918 ft | 525 kts | 32° |
| 2026-05-03 20:56 | 49.29810 | 1.60795 | 31951 ft | 523 kts | 45° |
| 2026-05-03 20:56 | 49.32451 | 1.64586 | 31933 ft | 525 kts | 44° |
| 2026-05-03 20:56 | 49.37759 | 1.72270 | 31941 ft | 525 kts | 45° |
| 2026-05-03 20:57 | 49.43064 | 1.80052 | 31939 ft | 525 kts | 45° |
| 2026-05-03 20:57 | 49.48338 | 1.87814 | 31940 ft | 525 kts | 45° |
| 2026-05-03 20:58 | 49.53601 | 1.95587 | 31940 ft | 525 kts | 45° |
| 2026-05-03 20:58 | 49.58880 | 2.03408 | 31938 ft | 526 kts | 45° |
| 2026-05-03 20:59 | 49.64143 | 2.11231 | 31938 ft | 525 kts | 45° |
| 2026-05-03 20:59 | 49.69364 | 2.19017 | 31941 ft | 525 kts | 45° |
| 2026-05-03 21:00 | 49.73756 | 2.25585 | 31942 ft | 524 kts | 45° |
| 2026-05-03 21:00 | 49.79857 | 2.34736 | 31938 ft | 525 kts | 45° |
| 2026-05-03 21:01 | 49.85076 | 2.42594 | 31938 ft | 524 kts | 45° |
| 2026-05-03 21:01 | 49.90297 | 2.50477 | 31939 ft | 524 kts | 45° |
| 2026-05-03 21:02 | 49.95529 | 2.58402 | 31936 ft | 524 kts | 45° |
| 2026-05-03 21:02 | 50.00721 | 2.66298 | 31952 ft | 524 kts | 45° |
| 2026-05-03 21:03 | 50.05905 | 2.74206 | 31945 ft | 523 kts | 45° |
| 2026-05-03 21:03 | 50.11096 | 2.82149 | 31937 ft | 522 kts | 45° |
| 2026-05-03 21:04 | 50.16278 | 2.90104 | 31938 ft | 522 kts | 45° |
| 2026-05-03 21:04 | 50.21436 | 2.98047 | 31755 ft | 518 kts | 45° |
| 2026-05-03 21:05 | 50.23978 | 3.01973 | 30603 ft | 525 kts | 46° |
| 2026-05-03 21:05 | 50.26630 | 3.06073 | 29423 ft | 533 kts | 46° |
| 2026-05-03 21:05 | 50.29230 | 3.10098 | 28723 ft | 527 kts | 46° |
| 2026-05-03 21:05 | 50.31803 | 3.14090 | 28062 ft | 521 kts | 46° |
| 2026-05-03 21:06 | 50.34379 | 3.18092 | 27461 ft | 514 kts | 46° |
| 2026-05-03 21:06 | 50.36887 | 3.21995 | 26877 ft | 508 kts | 45° |
| 2026-05-03 21:06 | 50.39366 | 3.25856 | 26316 ft | 502 kts | 45° |
| 2026-05-03 21:06 | 50.41822 | 3.29689 | 25764 ft | 496 kts | 45° |
| 2026-05-03 21:07 | 50.44268 | 3.33512 | 25218 ft | 491 kts | 45° |
| 2026-05-03 21:07 | 50.46659 | 3.37254 | 24708 ft | 485 kts | 45° |
| 2026-05-03 21:07 | 50.49050 | 3.41000 | 24185 ft | 480 kts | 45° |
| 2026-05-03 21:07 | 50.51379 | 3.44656 | 23685 ft | 475 kts | 45° |
| 2026-05-03 21:08 | 50.53720 | 3.48331 | 23126 ft | 470 kts | 44° |
| 2026-05-03 21:08 | 50.56250 | 3.51510 | 22573 ft | 463 kts | 34° |
| 2026-05-03 21:08 | 50.58860 | 3.54369 | 22066 ft | 457 kts | 34° |
| 2026-05-03 21:08 | 50.61463 | 3.57237 | 21512 ft | 453 kts | 34° |
| 2026-05-03 21:09 | 50.64047 | 3.60080 | 20992 ft | 448 kts | 34° |
| 2026-05-03 21:09 | 50.66588 | 3.62878 | 20472 ft | 444 kts | 34° |
| 2026-05-03 21:09 | 50.69090 | 3.65639 | 19973 ft | 440 kts | 34° |
| 2026-05-03 21:09 | 50.71610 | 3.68421 | 19476 ft | 436 kts | 34° |
| 2026-05-03 21:10 | 50.74057 | 3.71125 | 19016 ft | 432 kts | 34° |
| 2026-05-03 21:10 | 50.76508 | 3.73849 | 18538 ft | 428 kts | 34° |
| 2026-05-03 21:10 | 50.78920 | 3.76531 | 18045 ft | 424 kts | 34° |
| 2026-05-03 21:10 | 50.81329 | 3.79215 | 17532 ft | 420 kts | 34° |
| 2026-05-03 21:11 | 50.83696 | 3.81854 | 17026 ft | 417 kts | 34° |
| 2026-05-03 21:11 | 50.86065 | 3.84520 | 16505 ft | 413 kts | 37° |
| 2026-05-03 21:11 | 50.88036 | 3.87755 | 16019 ft | 409 kts | 55° |
| 2026-05-03 21:11 | 50.89608 | 3.91535 | 15497 ft | 407 kts | 58° |
| 2026-05-03 21:12 | 50.91042 | 3.95308 | 15050 ft | 403 kts | 66° |
| 2026-05-03 21:12 | 50.91864 | 3.99545 | 14584 ft | 397 kts | 84° |
| 2026-05-03 21:12 | 50.91867 | 4.03843 | 14134 ft | 390 kts | 100° |
| 2026-05-03 21:12 | 50.91612 | 4.06300 | 13993 ft | 384 kts | 102° |
| 2026-05-03 21:13 | 50.91155 | 4.10352 | 13796 ft | 374 kts | 103° |
| 2026-05-03 21:13 | 50.90708 | 4.14399 | 13571 ft | 366 kts | 97° |
| 2026-05-03 21:13 | 50.90667 | 4.18348 | 13411 ft | 357 kts | 92° |
| 2026-05-03 21:13 | 50.90646 | 4.22177 | 13227 ft | 343 kts | 93° |
| 2026-05-03 21:14 | 50.90612 | 4.25918 | 12945 ft | 333 kts | 93° |
| 2026-05-03 21:14 | 50.90570 | 4.29546 | 12642 ft | 320 kts | 93° |
| 2026-05-03 21:14 | 50.90528 | 4.32975 | 12259 ft | 310 kts | 93° |
| 2026-05-03 21:14 | 50.90483 | 4.36352 | 11899 ft | 300 kts | 94° |
| 2026-05-03 21:15 | 50.90439 | 4.39573 | 11583 ft | 290 kts | 94° |
| 2026-05-03 21:15 | 50.90395 | 4.42726 | 11290 ft | 280 kts | 94° |
| 2026-05-03 21:15 | 50.90352 | 4.45764 | 10818 ft | 283 kts | 94° |
| 2026-05-03 21:15 | 50.90306 | 4.48908 | 10323 ft | 284 kts | 94° |
| 2026-05-03 21:16 | 50.90362 | 4.52045 | 9659 ft | 290 kts | 79° |
| 2026-05-03 21:16 | 50.91193 | 4.54910 | 9150 ft | 289 kts | 51° |
| 2026-05-03 21:16 | 50.92654 | 4.57121 | 8580 ft | 288 kts | 40° |
| 2026-05-03 21:16 | 50.94162 | 4.59203 | 8087 ft | 286 kts | 41° |
| 2026-05-03 21:17 | 50.95654 | 4.61267 | 7577 ft | 285 kts | 41° |
| 2026-05-03 21:17 | 50.96645 | 4.62636 | 7235 ft | 284 kts | 41° |
| 2026-05-03 21:17 | 50.98607 | 4.65348 | 6987 ft | 281 kts | 41° |
| 2026-05-03 21:17 | 51.00092 | 4.67401 | 6991 ft | 283 kts | 41° |
| 2026-05-03 21:18 | 51.01572 | 4.69447 | 7007 ft | 283 kts | 41° |
| 2026-05-03 21:18 | 51.03061 | 4.71497 | 6996 ft | 282 kts | 38° |
| 2026-05-03 21:18 | 51.04736 | 4.72947 | 6636 ft | 275 kts | 13° |
| 2026-05-03 21:18 | 51.06605 | 4.73072 | 6158 ft | 266 kts | 344° |
| 2026-05-03 21:19 | 51.08252 | 4.71927 | 5771 ft | 253 kts | 319° |
| 2026-05-03 21:19 | 51.09483 | 4.70024 | 5418 ft | 243 kts | 308° |
| 2026-05-03 21:19 | 51.10347 | 4.67793 | 5051 ft | 231 kts | 285° |
| 2026-05-03 21:19 | 51.10802 | 4.65404 | 4776 ft | 222 kts | 283° |
| 2026-05-03 21:20 | 51.11223 | 4.63088 | 4562 ft | 210 kts | 279° |
| 2026-05-03 21:20 | 51.11201 | 4.60834 | 4251 ft | 205 kts | 249° |
| 2026-05-03 21:20 | 51.10440 | 4.58983 | 3966 ft | 205 kts | 220° |
| 2026-05-03 21:20 | 51.09235 | 4.57777 | 3728 ft | 209 kts | 205° |
| 2026-05-03 21:21 | 51.07849 | 4.56995 | 3484 ft | 211 kts | 197° |
| 2026-05-03 21:21 | 51.06442 | 4.56408 | 3227 ft | 210 kts | 196° |
| 2026-05-03 21:21 | 51.05018 | 4.55827 | 3032 ft | 209 kts | 196° |
| 2026-05-03 21:21 | 51.03623 | 4.55255 | 2752 ft | 208 kts | 196° |
| 2026-05-03 21:22 | 51.02231 | 4.54683 | 2469 ft | 205 kts | 196° |
| 2026-05-03 21:22 | 51.00875 | 4.54127 | 2173 ft | 193 kts | 197° |
| 2026-05-03 21:22 | 50.99657 | 4.53628 | 1922 ft | 166 kts | 197° |
| 2026-05-03 21:22 | 50.98632 | 4.53207 | 1737 ft | 141 kts | 197° |
| 2026-05-03 21:23 | 50.97708 | 4.52828 | 1520 ft | 134 kts | 197° |
| 2026-05-03 21:23 | 50.96810 | 4.52460 | 1346 ft | 135 kts | 196° |
| 2026-05-03 21:23 | 50.95904 | 4.52088 | 1167 ft | 136 kts | 196° |
| 2026-05-03 21:23 | 50.94973 | 4.51708 | 965 ft | 137 kts | 195° |
| 2026-05-03 21:24 | 50.94049 | 4.51328 | 770 ft | 139 kts | 195° |
| 2026-05-03 21:24 | 50.93105 | 4.50943 | 578 ft | 140 kts | 194° |
| 2026-05-03 21:24 | 50.92164 | 4.50555 | 380 ft | 140 kts | 194° |
| 2026-05-03 21:24 | 50.91229 | 4.50166 | 208 ft | 139 kts | 194° |
| 2026-05-03 21:25 | 50.90365 | 4.49824 | 125 ft | 81 kts | 195° |
| 2026-05-03 21:25 | 50.90128 | 4.49684 | 134 ft | 28 kts | 224° |
| 2026-05-03 21:25 | 50.90058 | 4.49506 | 133 ft | 1 kts | 242° |
| 2026-05-03 21:25 | 50.90050 | 4.49483 | 133 ft | 0 kts | 242° |
| 2026-05-03 21:28 | 50.90024 | 4.49404 | 134 ft | 15 kts | 242° |
| 2026-05-03 21:28 | 50.89972 | 4.49211 | 137 ft | 21 kts | 253° |
| 2026-05-03 21:29 | 50.89944 | 4.49056 | 138 ft | 11 kts | 298° |
| 2026-05-03 21:29 | 50.90006 | 4.48986 | 134 ft | 5 kts | 335° |
| 2026-05-03 21:29 | 50.90019 | 4.48976 | 133 ft | 0 kts | 335° |